createdAt,value
2019-04-05T00:00:33.916Z,98915.41
2019-04-05T00:03:02.820Z,98912.88
2019-04-05T00:05:30.598Z,98915.62
2019-04-05T00:07:58.412Z,98923.17
2019-04-05T00:10:26.154Z,98918.03
2019-04-05T00:12:54.206Z,98915.70
2019-04-05T00:15:21.931Z,98927.36
2019-04-05T00:17:49.702Z,98915.49
2019-04-05T00:20:17.419Z,98904.89
2019-04-05T00:22:45.165Z,98903.10
2019-04-05T00:25:12.922Z,98906.36
2019-04-05T00:27:40.684Z,98909.16
2019-04-05T00:30:08.809Z,98903.05
2019-04-05T00:32:36.575Z,98909.43
2019-04-05T00:35:04.634Z,98907.25
2019-04-05T00:37:32.379Z,98909.22
2019-04-05T00:40:00.102Z,98911.84
2019-04-05T00:42:27.859Z,98921.40
2019-04-05T00:44:55.580Z,98923.55
2019-04-05T00:47:23.427Z,98937.98
2019-04-05T00:49:51.142Z,98954.73
2019-04-05T00:52:18.902Z,98958.88
2019-04-05T00:54:46.626Z,98959.49
2019-04-05T00:57:14.407Z,98959.66
2019-04-05T00:59:42.135Z,98966.88
2019-04-05T01:02:09.856Z,98983.63
2019-04-05T01:04:37.625Z,98984.67
2019-04-05T01:07:05.579Z,98981.67
2019-04-05T01:09:33.361Z,98983.84
2019-04-05T01:12:01.618Z,98985.89
2019-04-05T01:14:29.959Z,98983.46
2019-04-05T01:16:57.803Z,98985.72
2019-04-05T01:19:31.479Z,98983.02
2019-04-05T01:22:04.979Z,98988.84
2019-04-05T01:24:33.459Z,98986.78
2019-04-05T01:27:02.948Z,98989.25
2019-04-05T01:29:30.695Z,98988.64
2019-04-05T01:31:58.412Z,98993.88
2019-04-05T01:34:26.163Z,98993.77
2019-04-05T01:36:54.105Z,98993.36
2019-04-05T01:39:21.851Z,98997.81
2019-04-05T01:41:49.995Z,99003.53
2019-04-05T01:44:18.148Z,98996.79
2019-04-05T01:46:45.904Z,99003.53
2019-04-05T01:49:13.666Z,99007.11
2019-04-05T01:51:41.870Z,99014.61
2019-04-05T01:54:09.728Z,99013.53
2019-04-05T01:56:37.470Z,99013.47
2019-04-05T01:59:05.200Z,99015.04
2019-04-05T02:01:32.930Z,99008.50
2019-04-05T02:04:00.684Z,99015.25
2019-04-05T02:06:28.820Z,99008.34
2019-04-05T02:08:56.677Z,99007.20
2019-04-05T02:11:24.501Z,99009.70
2019-04-05T02:13:52.451Z,99011.41
2019-04-05T02:16:20.190Z,99017.67
2019-04-05T02:18:47.945Z,99020.33
2019-04-05T02:21:15.680Z,99012.86
2019-04-05T02:23:43.525Z,99015.65
2019-04-05T02:26:11.378Z,99020.63
2019-04-05T02:28:39.135Z,99015.83
2019-04-05T02:31:06.905Z,99025.87
2019-04-05T02:33:34.641Z,99021.78
2019-04-05T02:36:02.384Z,99016.70
2019-04-05T02:38:30.101Z,99025.05
2019-04-05T02:41:00.272Z,99033.86
2019-04-05T02:43:32.882Z,99042.47
2019-04-05T02:46:02.704Z,99049.33
2019-04-05T02:48:35.947Z,99042.02
2019-04-05T02:51:05.780Z,99044.39
2019-04-05T02:53:35.718Z,99041.59
2019-04-05T02:56:05.319Z,99038.64
2019-04-05T02:58:35.344Z,99043.34
2019-04-05T03:01:03.179Z,99045.27
2019-04-05T03:03:31.018Z,99036.61
2019-04-05T03:05:58.757Z,99039.51
2019-04-05T03:08:26.898Z,99037.09
2019-04-05T03:11:10.409Z,99040.55
2019-04-05T03:13:47.812Z,99041.13
2019-04-05T03:16:38.503Z,99040.50
2019-04-05T03:19:05.513Z,99034.44
2019-04-05T03:21:38.361Z,99032.82
2019-04-05T03:24:11.598Z,99029.31
2019-04-05T03:26:45.354Z,99031.12
2019-04-05T03:29:13.398Z,99030.61
2019-04-05T03:31:41.426Z,99025.61
2019-04-05T03:34:09.589Z,99026.50
2019-04-05T03:36:38.358Z,99031.92
2019-04-05T03:39:07.039Z,99029.05
2019-04-05T03:41:35.427Z,99040.60
2019-04-05T03:44:03.457Z,99048.18
2019-04-05T03:46:32.117Z,99063.63
2019-04-05T03:49:00.190Z,99064.13
2019-04-05T03:51:28.118Z,99070.44
2019-04-05T03:53:55.970Z,99082.03
2019-04-05T03:56:24.155Z,99078.38
2019-04-05T03:58:51.954Z,99076.80
2019-04-05T04:01:19.728Z,99083.02
2019-04-05T04:03:47.542Z,99094.16
2019-04-05T04:06:15.460Z,99100.16
2019-04-05T04:08:43.360Z,99105.92
2019-04-05T04:11:11.278Z,99108.80
2019-04-05T04:13:39.327Z,99106.81
2019-04-05T04:16:07.168Z,99111.89
2019-04-05T04:18:35.296Z,99109.20
2019-04-05T04:21:31.689Z,99115.03
2019-04-05T04:23:59.518Z,99121.77
2019-04-05T04:26:27.380Z,99128.30
2019-04-05T04:28:56.118Z,99138.17
2019-04-05T04:31:24.051Z,99149.70
2019-04-05T04:33:52.298Z,99150.70
2019-04-05T04:36:20.883Z,99150.75
2019-04-05T04:38:49.539Z,99149.17
2019-04-05T04:41:17.380Z,99153.22
2019-04-05T04:43:45.128Z,99159.19
2019-04-05T04:46:12.900Z,99171.94
2019-04-05T04:48:41.510Z,99168.22
2019-04-05T04:51:10.141Z,99173.53
2019-04-05T04:53:38.393Z,99167.09
2019-04-05T04:56:06.577Z,99172.85
2019-04-05T04:58:34.615Z,99170.04
2019-04-05T05:01:03.055Z,99171.04
2019-04-05T05:03:31.097Z,99171.29
2019-04-05T05:05:58.921Z,99177.00
2019-04-05T05:08:26.782Z,99173.86
2019-04-05T05:10:54.805Z,99178.15
2019-04-05T05:13:22.864Z,99176.45
2019-04-05T05:15:50.730Z,99177.87
2019-04-05T05:18:18.803Z,99179.72
2019-04-05T05:20:46.651Z,99182.09
2019-04-05T05:23:14.512Z,99162.33
2019-04-05T05:25:42.465Z,99166.19
2019-04-05T05:28:10.428Z,99178.84
2019-04-05T05:30:38.169Z,99184.16
2019-04-05T05:33:05.932Z,99178.59
2019-04-05T05:35:33.830Z,99179.17
2019-04-05T05:38:01.926Z,99187.73
2019-04-05T05:40:35.027Z,99191.08
2019-04-05T05:42:59.311Z,99195.57
2019-04-05T05:45:27.024Z,99193.67
2019-04-05T05:47:54.947Z,99198.31
2019-04-05T05:50:22.680Z,99197.56
2019-04-05T05:52:51.060Z,99192.87
2019-04-05T05:55:18.896Z,99187.66
2019-04-05T05:57:46.645Z,99190.84
2019-04-05T06:00:19.039Z,99188.58
2019-04-05T06:02:48.410Z,99184.23
2019-04-05T06:05:16.424Z,99193.66
2019-04-05T06:07:45.342Z,99192.39
2019-04-05T06:10:13.108Z,99195.31
2019-04-05T06:12:40.838Z,99212.08
2019-04-05T06:15:09.134Z,99209.48
2019-04-05T06:17:36.854Z,99202.73
2019-04-05T06:20:06.232Z,99206.02
2019-04-05T06:22:33.969Z,99204.46
2019-04-05T06:25:01.737Z,99210.75
2019-04-05T06:27:30.294Z,99219.93
2019-04-05T06:29:58.050Z,99222.27
2019-04-05T06:32:25.826Z,99220.92
2019-04-05T06:34:56.420Z,99222.47
2019-04-05T06:37:24.186Z,99228.19
2019-04-05T06:39:51.907Z,99228.84
2019-04-05T06:42:19.627Z,99225.84
2019-04-05T06:44:47.407Z,99221.45
2019-04-05T06:47:15.309Z,99224.13
2019-04-05T06:49:43.141Z,99216.70
2019-04-05T06:52:10.959Z,99216.57
2019-04-05T06:54:38.711Z,99214.43
2019-04-05T06:57:06.473Z,99216.82
2019-04-05T06:59:34.447Z,99211.66
2019-04-05T07:02:02.188Z,99222.42
2019-04-05T07:04:31.153Z,99223.73
2019-04-05T07:06:59.164Z,99234.05
2019-04-05T07:09:26.903Z,99236.52
2019-04-05T07:11:54.661Z,99235.59
2019-04-05T07:14:22.422Z,99242.23
2019-04-05T07:16:50.203Z,99236.86
2019-04-05T07:19:17.943Z,99239.77
2019-04-05T07:21:45.711Z,99237.78
2019-04-05T07:24:13.459Z,99242.40
2019-04-05T07:26:41.191Z,99251.59
2019-04-05T07:29:08.952Z,99254.03
2019-04-05T07:31:36.721Z,99262.77
2019-04-05T07:34:04.840Z,99265.81
2019-04-05T07:36:32.603Z,99268.91
2019-04-05T07:39:00.448Z,99273.89
2019-04-05T07:41:28.497Z,99266.98
2019-04-05T07:44:02.605Z,99271.94
2019-04-05T07:46:30.603Z,99275.08
2019-04-05T07:48:58.331Z,99272.22
2019-04-05T07:51:26.101Z,99270.47
2019-04-05T07:53:53.871Z,99269.27
2019-04-05T07:56:22.440Z,99270.67
2019-04-05T07:58:50.242Z,99282.50
2019-04-05T08:01:18.034Z,99286.45
2019-04-05T08:03:46.630Z,99289.95
2019-04-05T08:06:15.128Z,99290.29
2019-04-05T08:09:02.404Z,99297.79
2019-04-05T08:11:30.616Z,99307.78
2019-04-05T08:14:01.166Z,99297.22
2019-04-05T08:16:29.010Z,99302.56
2019-04-05T08:18:58.322Z,99309.90
2019-04-05T08:21:26.201Z,99308.45
2019-04-05T08:23:54.036Z,99309.79
2019-04-05T08:26:21.895Z,99304.49
2019-04-05T08:28:49.654Z,99298.19
2019-04-05T08:31:17.404Z,99292.03
2019-04-05T08:33:45.209Z,99291.72
2019-04-05T08:36:13.062Z,99296.04
2019-04-05T08:38:40.805Z,99296.09
2019-04-05T08:41:08.598Z,99302.22
2019-04-05T08:43:36.348Z,99310.12
2019-04-05T08:46:04.201Z,99308.14
2019-04-05T08:48:31.955Z,99305.69
2019-04-05T08:50:59.758Z,99303.94
2019-04-05T08:53:27.527Z,99297.55
2019-04-05T08:55:55.277Z,99301.88
2019-04-05T08:58:32.813Z,99297.42
2019-04-05T09:00:53.823Z,99299.30
2019-04-05T09:03:21.616Z,99297.86
2019-04-05T09:05:49.350Z,99294.53
2019-04-05T09:08:17.130Z,99296.12
2019-04-05T09:10:45.139Z,99294.11
2019-04-05T09:13:12.889Z,99298.47
2019-04-05T09:15:41.074Z,99305.25
2019-04-05T09:18:09.770Z,99302.80
2019-04-05T09:20:37.569Z,99304.93
2019-04-05T09:23:05.348Z,99303.27
2019-04-05T09:25:33.176Z,99308.17
2019-04-05T09:28:00.962Z,99314.13
2019-04-05T09:30:28.706Z,99305.16
2019-04-05T09:32:56.598Z,99303.23
2019-04-05T09:35:24.414Z,99314.19
2019-04-05T09:37:52.545Z,99321.56
2019-04-05T09:40:21.294Z,99326.44
2019-04-05T09:42:49.397Z,99323.20
2019-04-05T09:45:17.106Z,99320.45
2019-04-05T09:47:44.912Z,99325.90
2019-04-05T09:50:13.955Z,99323.95
2019-04-05T09:52:41.732Z,99317.44
2019-04-05T09:55:10.066Z,99312.45
2019-04-05T09:57:37.907Z,99317.20
2019-04-05T10:00:12.992Z,99313.59
2019-04-05T10:02:41.861Z,99321.11
2019-04-05T10:05:11.556Z,99324.32
2019-04-05T10:07:53.803Z,99324.70
2019-04-05T10:10:09.382Z,99322.41
2019-04-05T10:12:37.152Z,99318.53
2019-04-05T10:15:05.506Z,99315.48
2019-04-05T10:17:33.261Z,99315.53
2019-04-05T10:20:00.984Z,99319.41
2019-04-05T10:22:28.987Z,99325.39
2019-04-05T10:24:56.756Z,99323.51
2019-04-05T10:27:24.575Z,99337.63
2019-04-05T10:29:52.366Z,99335.97
2019-04-05T10:32:20.109Z,99326.73
2019-04-05T10:34:47.849Z,99324.05
2019-04-05T10:37:15.626Z,99318.77
2019-04-05T10:39:43.424Z,99317.69
2019-04-05T10:42:29.808Z,99332.44
2019-04-05T10:44:57.753Z,99328.28
2019-04-05T10:47:25.515Z,99329.69
2019-04-05T10:50:02.867Z,99335.98
2019-04-05T10:52:22.973Z,99344.98
2019-04-05T10:54:52.991Z,99345.50
2019-04-05T10:57:20.863Z,99344.38
2019-04-05T10:59:48.669Z,99353.37
2019-04-05T11:02:16.385Z,99352.52
2019-04-05T11:04:44.140Z,99354.34
2019-04-05T11:07:11.904Z,99354.08
2019-04-05T11:09:39.663Z,99353.06
2019-04-05T11:12:08.740Z,99349.53
2019-04-05T11:14:36.906Z,99353.80
2019-04-05T11:17:05.152Z,99350.55
2019-04-05T11:19:36.225Z,99352.52
2019-04-05T11:22:03.102Z,99353.77
2019-04-05T11:24:30.890Z,99344.08
2019-04-05T11:26:58.906Z,99351.66
2019-04-05T11:29:26.716Z,99343.64
2019-04-05T11:31:57.447Z,99340.56
2019-04-05T11:34:24.190Z,99336.66
2019-04-05T11:36:52.377Z,99347.44
2019-04-05T11:39:20.656Z,99339.72
2019-04-05T11:41:52.190Z,99340.51
2019-04-05T11:44:22.877Z,99339.13
2019-04-05T11:46:50.608Z,99333.64
2019-04-05T11:49:18.474Z,99342.61
2019-04-05T11:51:47.903Z,99342.41
2019-04-05T11:54:18.355Z,99339.12
2019-04-05T11:56:45.284Z,99337.35
2019-04-05T11:59:15.565Z,99342.05
2019-04-05T12:02:12.604Z,99335.47
2019-04-05T12:04:42.717Z,99339.56
2019-04-05T12:07:10.007Z,99337.23
2019-04-05T12:09:38.235Z,99338.86
2019-04-05T12:12:06.004Z,99338.90
2019-04-05T12:14:36.368Z,99343.28
2019-04-05T12:17:05.438Z,99347.42
2019-04-05T12:19:33.633Z,99349.41
2019-04-05T12:22:04.536Z,99350.59
2019-04-05T12:24:32.648Z,99345.53
2019-04-05T12:27:02.622Z,99329.06
2019-04-05T12:29:30.645Z,99325.95
2019-04-05T12:31:58.407Z,99327.30
2019-04-05T12:34:28.571Z,99330.28
2019-04-05T12:36:55.835Z,99330.52
2019-04-05T12:39:23.563Z,99334.84
2019-04-05T12:41:51.299Z,99322.02
2019-04-05T12:44:19.034Z,99326.25
2019-04-05T12:46:46.789Z,99312.58
2019-04-05T12:49:15.302Z,99316.22
2019-04-05T12:51:45.578Z,99317.20
2019-04-05T12:54:13.223Z,99305.94
2019-04-05T12:56:40.973Z,99299.70
2019-04-05T12:59:08.734Z,99300.14
2019-04-05T13:01:36.932Z,99293.03
2019-04-05T13:04:04.775Z,99292.63
2019-04-05T13:06:32.541Z,99294.34
2019-04-05T13:09:00.414Z,99303.53
2019-04-05T13:11:28.304Z,99304.02
2019-04-05T13:13:57.030Z,99306.31
2019-04-05T13:16:24.956Z,99314.97
2019-04-05T13:18:52.756Z,99305.66
2019-04-05T13:21:20.586Z,99293.44
2019-04-05T13:23:48.372Z,99300.56
2019-04-05T13:26:16.162Z,99290.02
2019-04-05T13:28:43.936Z,99292.11
2019-04-05T13:31:11.708Z,99297.97
2019-04-05T13:33:39.469Z,99287.38
2019-04-05T13:36:08.583Z,99277.64
2019-04-05T13:38:36.426Z,99284.83
2019-04-05T13:41:04.244Z,99294.67
2019-04-05T13:43:32.752Z,99289.91
2019-04-05T13:46:00.582Z,99291.13
2019-04-05T13:48:28.486Z,99294.56
2019-04-05T13:50:56.265Z,99292.79
2019-04-05T13:53:24.075Z,99301.70
2019-04-05T13:55:51.808Z,99297.82
2019-04-05T13:58:19.573Z,99290.19
2019-04-05T14:00:48.750Z,99288.66
2019-04-05T14:03:20.159Z,99283.28
2019-04-05T14:05:46.736Z,99283.14
2019-04-05T14:08:14.522Z,99273.03
2019-04-05T14:10:42.286Z,99270.91
2019-04-05T14:13:10.484Z,99278.57
2019-04-05T14:15:41.819Z,99274.21
2019-04-05T14:18:07.889Z,99270.22
2019-04-05T14:20:35.646Z,99273.09
2019-04-05T14:23:03.511Z,99276.33
2019-04-05T14:25:31.319Z,99278.16
2019-04-05T14:27:59.115Z,99257.82
2019-04-05T14:30:26.870Z,99273.39
2019-04-05T14:32:55.714Z,99280.83
2019-04-05T14:35:25.244Z,99275.02
2019-04-05T14:37:54.527Z,99275.33
2019-04-05T14:40:22.929Z,99275.84
2019-04-05T14:42:50.785Z,99275.41
2019-04-05T14:45:18.664Z,99273.84
2019-04-05T14:47:46.442Z,99273.94
2019-04-05T14:50:16.151Z,99272.05
2019-04-05T14:52:44.139Z,99279.09
2019-04-05T14:55:11.903Z,99274.38
2019-04-05T14:57:39.677Z,99279.48
2019-04-05T15:00:08.502Z,99281.59
2019-04-05T15:02:36.295Z,99282.41
2019-04-05T15:05:04.949Z,99277.67
2019-04-05T15:07:32.702Z,99281.94
2019-04-05T15:10:03.486Z,99281.45
2019-04-05T15:12:30.118Z,99279.46
2019-04-05T15:14:57.876Z,99278.39
2019-04-05T15:17:25.644Z,99274.05
2019-04-05T15:19:53.425Z,99270.48
2019-04-05T15:22:21.192Z,99274.37
2019-04-05T15:24:48.985Z,99277.34
2019-04-05T15:27:16.732Z,99271.27
2019-04-05T15:29:44.484Z,99269.66
2019-04-05T15:32:12.264Z,99266.58
2019-04-05T15:34:40.010Z,99270.42
2019-04-05T15:37:07.758Z,99275.22
2019-04-05T15:39:35.549Z,99280.40
2019-04-05T15:42:03.327Z,99270.59
2019-04-05T15:44:31.131Z,99274.95
2019-04-05T15:46:58.889Z,99276.19
2019-04-05T15:49:26.674Z,99272.22
2019-04-05T15:51:55.135Z,99272.72
2019-04-05T15:54:24.146Z,99271.66
2019-04-05T15:56:51.891Z,99273.31
2019-04-05T15:59:21.821Z,99270.68
2019-04-05T16:01:49.296Z,99272.62
2019-04-05T16:04:17.102Z,99272.36
2019-04-05T16:06:44.899Z,99270.29
2019-04-05T16:09:16.524Z,99274.19
2019-04-05T16:11:44.286Z,99267.99
2019-04-05T16:14:12.035Z,99275.95
2019-04-05T16:16:39.803Z,99263.75
2019-04-05T16:19:07.594Z,99260.28
2019-04-05T16:21:35.372Z,99256.61
2019-04-05T16:24:03.232Z,99266.75
2019-04-05T16:26:31.093Z,99262.39
2019-04-05T16:28:58.880Z,99264.04
2019-04-05T16:31:26.663Z,99262.97
2019-04-05T16:33:54.627Z,99259.46
2019-04-05T16:36:22.415Z,99258.36
2019-04-05T16:38:50.247Z,99253.75
2019-04-05T16:41:18.003Z,99249.67
2019-04-05T16:43:45.765Z,99256.70
2019-04-05T16:46:13.541Z,99258.34
2019-04-05T16:48:41.319Z,99256.18
2019-04-05T16:51:09.119Z,99261.61
2019-04-05T16:53:38.762Z,99266.50
2019-04-05T16:56:06.570Z,99271.34
2019-04-05T16:58:34.280Z,99264.83
2019-04-05T17:01:02.055Z,99265.90
2019-04-05T17:03:29.802Z,99270.77
2019-04-05T17:05:57.552Z,99273.20
2019-04-05T17:08:25.317Z,99271.28
2019-04-05T17:10:53.364Z,99276.95
2019-04-05T17:13:21.202Z,99268.25
2019-04-05T17:15:49.196Z,99257.66
2019-04-05T17:18:16.935Z,99259.03
2019-04-05T17:20:44.734Z,99251.71
2019-04-05T17:23:12.480Z,99257.34
2019-04-05T17:25:40.230Z,99261.36
2019-04-05T17:28:07.976Z,99267.83
2019-04-05T17:30:36.375Z,99264.84
2019-04-05T17:33:04.310Z,99263.45
2019-04-05T17:35:32.076Z,99266.93
2019-04-05T17:37:59.860Z,99266.08
2019-04-05T17:40:27.608Z,99269.05
2019-04-05T17:42:55.590Z,99261.41
2019-04-05T17:45:23.341Z,99267.31
2019-04-05T17:47:51.135Z,99268.08
2019-04-05T17:50:31.170Z,99272.62
2019-04-05T17:53:11.511Z,99276.13
2019-04-05T17:55:28.572Z,99283.91
2019-04-05T17:57:57.701Z,99281.73
2019-04-05T18:00:25.695Z,99286.84
2019-04-05T18:02:54.515Z,99287.36
2019-04-05T18:05:22.320Z,99289.98
2019-04-05T18:07:50.107Z,99300.20
2019-04-05T18:10:18.082Z,99305.86
2019-04-05T18:12:45.834Z,99302.07
2019-04-05T18:15:13.668Z,99307.17
2019-04-05T18:17:42.000Z,99306.61
2019-04-05T18:20:10.286Z,99308.41
2019-04-05T18:22:38.115Z,99309.72
2019-04-05T18:25:06.134Z,99305.91
2019-04-05T18:27:33.917Z,99316.67
2019-04-05T18:30:02.211Z,99307.17
2019-04-05T18:32:31.367Z,99307.37
2019-04-05T18:34:59.294Z,99306.80
2019-04-05T18:37:27.412Z,99314.02
2019-04-05T18:39:55.206Z,99309.92
2019-04-05T18:42:23.019Z,99307.16
2019-04-05T18:44:50.869Z,99307.48
2019-04-05T18:47:18.678Z,99307.20
2019-04-05T18:49:46.594Z,99317.64
2019-04-05T18:52:14.338Z,99306.80
2019-04-05T18:54:43.267Z,99307.62
2019-04-05T18:57:14.012Z,99315.41
2019-04-05T18:59:41.082Z,99310.77
2019-04-05T19:02:08.861Z,99312.28
2019-04-05T19:04:36.662Z,99311.45
2019-04-05T19:07:04.528Z,99307.39
2019-04-05T19:09:32.593Z,99311.19
2019-04-05T19:12:00.386Z,99314.13
2019-04-05T19:14:28.182Z,99306.55
2019-04-05T19:16:59.069Z,99311.58
2019-04-05T19:19:25.757Z,99308.88
2019-04-05T19:21:53.817Z,99309.08
2019-04-05T19:24:21.819Z,99314.65
2019-04-05T19:26:49.636Z,99310.34
2019-04-05T19:29:17.438Z,99311.31
2019-04-05T19:49:14.743Z,99321.13
2019-04-05T19:51:42.498Z,99323.41
2019-04-05T19:54:10.354Z,99329.30
2019-04-05T19:56:38.214Z,99323.43
2019-04-05T19:59:06.327Z,99322.48
2019-04-05T20:01:34.085Z,99326.17
2019-04-05T20:04:01.864Z,99327.18
2019-04-05T20:06:29.703Z,99336.22
2019-04-05T20:08:57.515Z,99337.63
2019-04-05T20:11:25.349Z,99335.27
2019-04-05T20:13:54.289Z,99338.14
2019-04-05T20:16:23.167Z,99341.08
2019-04-05T20:18:51.018Z,99334.22
2019-04-05T20:21:18.801Z,99333.11
2019-04-05T20:23:47.761Z,99332.22
2019-04-05T20:26:15.843Z,99330.23
2019-04-05T20:28:43.602Z,99332.52
2019-04-05T20:31:11.380Z,99327.65
2019-04-05T20:33:39.149Z,99327.89
2019-04-05T20:36:06.917Z,99326.59
2019-04-05T20:38:34.683Z,99332.63
2019-04-05T20:41:02.583Z,99332.87
2019-04-05T20:43:30.326Z,99336.32
2019-04-05T20:45:58.117Z,99330.14
2019-04-05T20:48:25.845Z,99340.73
2019-04-05T20:50:53.629Z,99336.59
2019-04-05T20:53:21.387Z,99332.31
2019-04-05T20:55:50.507Z,99338.42
2019-04-05T20:58:18.295Z,99336.59
2019-04-05T21:00:46.065Z,99333.13
2019-04-05T21:03:13.844Z,99338.69
2019-04-05T21:05:41.900Z,99339.64
2019-04-05T21:08:09.640Z,99343.92
2019-04-05T21:10:37.383Z,99343.67
2019-04-05T21:13:05.141Z,99346.53
2019-04-05T21:15:32.892Z,99346.19
2019-04-05T21:18:00.633Z,99350.63
2019-04-05T21:20:29.490Z,99355.48
2019-04-05T21:22:57.236Z,99343.90
2019-04-05T21:25:25.006Z,99349.23
2019-04-05T21:27:52.768Z,99351.17
2019-04-05T21:30:20.503Z,99350.59
2019-04-05T21:32:48.261Z,99350.23
2019-04-05T21:35:16.026Z,99348.06
2019-04-05T21:37:43.783Z,99353.39
2019-04-05T21:40:11.919Z,99356.84
2019-04-05T21:42:40.019Z,99359.33
2019-04-05T21:45:08.189Z,99356.01
2019-04-05T21:47:35.921Z,99359.64
2019-04-05T21:50:04.295Z,99359.69
2019-04-05T21:52:32.378Z,99355.89
2019-04-05T21:55:00.107Z,99357.19
2019-04-05T21:57:27.893Z,99359.09
2019-04-05T21:59:55.623Z,99352.33
2019-04-05T22:02:23.421Z,99363.80
2019-04-05T22:04:51.370Z,99362.25
2019-04-05T22:07:19.269Z,99364.53
2019-04-05T22:09:47.113Z,99366.31
2019-04-05T22:12:14.962Z,99372.87
2019-04-05T22:14:42.705Z,99369.01
2019-04-05T22:17:10.491Z,99369.90
2019-04-05T22:19:38.235Z,99363.63
2019-04-05T22:22:05.986Z,99364.92
2019-04-05T22:24:33.813Z,99361.88
2019-04-05T22:27:01.554Z,99366.27
2019-04-05T22:29:29.289Z,99363.36
2019-04-05T22:31:57.055Z,99374.83
2019-04-05T22:34:24.795Z,99366.29
2019-04-05T22:36:52.557Z,99364.70
2019-04-05T22:39:21.531Z,99372.29
2019-04-05T22:41:49.446Z,99372.53
2019-04-05T22:44:17.250Z,99373.16
2019-04-05T22:46:45.013Z,99371.88
2019-04-05T22:49:12.765Z,99374.10
2019-04-05T22:51:40.529Z,99370.95
2019-04-05T22:54:08.294Z,99374.82
2019-04-05T22:56:36.087Z,99379.14
2019-04-05T22:59:03.808Z,99375.30
2019-04-05T23:01:31.562Z,99386.06
2019-04-05T23:03:59.313Z,99385.49
2019-04-05T23:06:27.644Z,99385.37
2019-04-05T23:08:55.375Z,99393.17
2019-04-05T23:11:23.380Z,99393.11
2019-04-05T23:13:51.126Z,99391.89
2019-04-05T23:16:18.895Z,99389.20
2019-04-05T23:18:46.606Z,99385.24
2019-04-05T23:21:14.398Z,99381.99
2019-04-05T23:23:42.182Z,99383.36
2019-04-05T23:26:09.958Z,99383.83
2019-04-05T23:28:39.851Z,99385.67
2019-04-05T23:31:07.672Z,99392.76
2019-04-05T23:33:35.802Z,99389.78
2019-04-05T23:36:03.728Z,99392.48
2019-04-05T23:38:31.826Z,99396.00
2019-04-05T23:40:59.561Z,99402.86
2019-04-05T23:43:27.338Z,99409.16
2019-04-05T23:45:55.272Z,99411.10
2019-04-05T23:48:23.066Z,99419.20
2019-04-05T23:50:50.812Z,99425.18
2019-04-05T23:53:18.757Z,99421.56
2019-04-05T23:55:46.489Z,99424.03
2019-04-05T23:58:14.253Z,99423.65
